Time,TemperatureF,DewpointF,PressureIn,WindDirection,WindDirectionDegrees,WindSpeedMPH,WindSpeedGustMPH,Humidity,HourlyPrecipIn,Conditions,Clouds,dailyrainin,SolarRadiationWatts/m^2,SoftwareType,DateUTC
2013-07-02 00:01:00,72.8,71.9,30.02,ESE,115,3.0,6.0,97,0.05,,BKN075,0.00,0.00,VWS V14.01,2013-07-02 04:01:00,
2013-07-02 00:03:00,72.8,71.9,30.02,ESE,123,2.0,4.0,97,0.03,,BKN075,0.00,0.00,VWS V14.01,2013-07-02 04:03:00,
2013-07-02 00:08:00,72.8,71.9,30.02,SE,142,2.0,4.0,97,0.03,,BKN075,0.00,0.00,VWS V14.01,2013-07-02 04:08:00,
2013-07-02 00:13:00,72.8,71.9,30.02,ESE,121,2.0,5.0,97,0.03,,BKN075,0.00,0.00,VWS V14.01,2013-07-02 04:13:00,
2013-07-02 00:18:00,72.8,71.9,30.02,SSE,152,3.0,5.0,97,0.03,,BKN075,0.00,0.00,VWS V14.01,2013-07-02 04:18:00,
2013-07-02 00:23:00,72.8,71.9,30.02,SE,136,2.0,5.0,97,0.03,,BKN075,0.00,0.00,VWS V14.01,2013-07-02 04:23:00,
2013-07-02 00:28:00,72.8,71.9,30.02,ESE,114,4.0,5.0,97,0.03,,BKN075,0.00,0.00,VWS V14.01,2013-07-02 04:28:00,
2013-07-02 00:33:00,72.7,71.8,30.01,ESE,114,2.0,2.0,97,0.00,,BKN075,0.00,0.00,VWS V14.01,2013-07-02 04:33:00,
2013-07-02 00:38:00,72.6,71.7,30.01,ESE,114,0.0,3.0,97,0.00,,OVC110,0.00,0.00,VWS V14.01,2013-07-02 04:38:00,
2013-07-02 00:43:00,72.7,71.8,30.01,ESE,119,3.0,5.0,97,0.01,,OVC110,0.01,0.00,VWS V14.01,2013-07-02 04:43:00,
2013-07-02 00:48:00,72.9,72.0,30.01,ESE,119,2.0,5.0,97,0.01,,OVC110,0.01,0.00,VWS V14.01,2013-07-02 04:48:00,
2013-07-02 00:53:00,72.8,71.9,30.01,ESE,119,2.0,5.0,97,0.01,,OVC110,0.01,0.00,VWS V14.01,2013-07-02 04:53:00,
2013-07-02 00:58:00,72.8,71.9,30.01,ESE,119,3.0,5.0,97,0.01,,BKN100,0.01,0.00,VWS V14.01,2013-07-02 04:58:00,
2013-07-02 01:03:00,72.8,71.9,30.01,SE,142,3.0,4.0,97,0.01,,BKN100,0.01,0.00,VWS V14.01,2013-07-02 05:03:00,
2013-07-02 01:08:00,72.9,72.0,30.01,ESE,123,2.0,4.0,97,0.01,,BKN100,0.01,0.00,VWS V14.01,2013-07-02 05:08:00,
2013-07-02 01:13:00,72.8,71.9,30.01,SE,124,1.0,4.0,97,0.01,,BKN100,0.01,0.00,VWS V14.01,2013-07-02 05:13:00,
2013-07-02 01:18:00,72.8,71.9,30.01,SE,124,0.0,4.0,97,0.01,,BKN070,0.01,0.00,VWS V14.01,2013-07-02 05:18:00,
2013-07-02 01:23:00,72.8,71.9,30.01,SE,124,0.0,4.0,97,0.01,,BKN070,0.01,0.00,VWS V14.01,2013-07-02 05:23:00,
2013-07-02 01:28:00,72.7,71.8,30.01,SE,124,0.0,4.0,97,0.01,,BKN070,0.01,0.00,VWS V14.01,2013-07-02 05:28:00,
2013-07-02 01:33:00,72.8,71.9,30.00,SE,124,0.0,1.0,97,0.01,,BKN070,0.01,0.00,VWS V14.01,2013-07-02 05:33:00,
2013-07-02 01:38:00,72.9,72.0,30.00,East,101,0.0,2.0,97,0.01,,OVC042,0.01,0.00,VWS V14.01,2013-07-02 05:38:00,
2013-07-02 01:43:00,72.9,72.0,30.00,East,101,0.0,2.0,97,0.01,,OVC042,0.01,0.00,VWS V14.01,2013-07-02 05:43:00,
2013-07-02 01:48:00,72.9,72.0,30.00,East,101,0.0,2.0,97,0.01,,OVC042,0.01,0.00,VWS V14.01,2013-07-02 05:48:00,
2013-07-02 01:53:00,72.8,71.9,30.00,East,101,1.0,2.0,97,0.01,,OVC042,0.01,0.00,VWS V14.01,2013-07-02 05:53:00,
2013-07-02 01:58:00,72.8,71.9,29.99,East,79,0.0,3.0,97,0.01,,BKN120,0.01,0.00,VWS V14.01,2013-07-02 05:58:00,
2013-07-02 02:03:00,72.8,71.9,29.99,East,84,1.0,3.0,97,0.00,,BKN120,0.01,0.00,VWS V14.01,2013-07-02 06:03:00,
2013-07-02 02:08:00,72.8,71.9,29.99,East,84,1.0,3.0,97,0.00,,BKN120,0.01,0.00,VWS V14.01,2013-07-02 06:08:00,
2013-07-02 02:13:00,72.8,71.9,29.99,East,91,0.0,3.0,97,0.01,,BKN120,0.02,0.00,VWS V14.01,2013-07-02 06:13:00,
2013-07-02 02:18:00,72.8,71.9,29.99,East,99,2.0,3.0,97,0.01,,BKN120,0.02,0.00,VWS V14.01,2013-07-02 06:18:00,
2013-07-02 02:23:00,72.8,71.9,29.98,ESE,107,2.0,3.0,97,0.01,,BKN120,0.02,0.00,VWS V14.01,2013-07-02 06:23:00,
2013-07-02 02:28:00,72.9,72.0,29.98,ESE,110,3.0,4.0,97,0.01,,BKN120,0.02,0.00,VWS V14.01,2013-07-02 06:28:00,
2013-07-02 02:33:00,72.8,71.9,29.98,ESE,111,0.0,3.0,97,0.01,,BKN120,0.02,0.00,VWS V14.01,2013-07-02 06:33:00,
2013-07-02 02:38:00,72.9,72.0,29.98,East,98,1.0,3.0,97,0.01,,SCT120,0.02,0.00,VWS V14.01,2013-07-02 06:38:00,
2013-07-02 02:43:00,72.8,71.9,29.98,ESE,107,0.0,3.0,97,0.01,,SCT120,0.02,0.00,VWS V14.01,2013-07-02 06:43:00,
2013-07-02 02:48:00,72.8,71.9,29.98,ESE,107,1.0,3.0,97,0.01,,SCT120,0.02,0.00,VWS V14.01,2013-07-02 06:48:00,
2013-07-02 02:53:00,72.8,71.9,29.98,ESE,107,0.0,3.0,97,0.02,,SCT120,0.03,0.00,VWS V14.01,2013-07-02 06:53:00,
2013-07-02 02:58:00,72.8,71.9,29.98,ESE,107,0.0,3.0,97,0.02,,BKN050,0.03,0.00,VWS V14.01,2013-07-02 06:58:00,
2013-07-02 03:03:00,72.9,72.0,29.98,ESE,107,0.0,1.0,97,0.02,,BKN050,0.03,0.00,VWS V14.01,2013-07-02 07:03:00,
2013-07-02 03:08:00,73.0,72.4,29.98,ESE,107,2.0,2.0,98,0.02,,BKN050,0.03,0.00,VWS V14.01,2013-07-02 07:08:00,
2013-07-02 03:14:00,73.0,72.4,29.98,East,92,2.0,4.0,98,0.02,,BKN050,0.03,0.00,VWS V14.01,2013-07-02 07:14:00,
2013-07-02 03:19:00,73.1,72.5,29.98,East,99,2.0,4.0,98,0.03,,BKN050,0.04,0.00,VWS V14.01,2013-07-02 07:19:00,
2013-07-02 03:24:00,73.0,72.4,29.98,East,99,1.0,4.0,98,0.03,,OVC060,0.04,0.00,VWS V14.01,2013-07-02 07:24:00,
2013-07-02 03:29:00,72.9,72.0,29.98,East,93,3.0,5.0,97,0.03,,OVC060,0.04,0.00,VWS V14.01,2013-07-02 07:29:00,
2013-07-02 03:34:00,72.8,71.9,29.98,ENE,71,3.0,5.0,97,0.03,,OVC060,0.05,0.00,VWS V14.01,2013-07-02 07:34:00,
2013-07-02 03:39:00,72.8,71.9,29.98,ENE,71,2.0,5.0,97,0.03,,OVC048,0.05,0.00,VWS V14.01,2013-07-02 07:39:00,
2013-07-02 03:44:00,72.8,71.9,29.97,ENE,71,2.0,5.0,97,0.03,,OVC048,0.05,0.00,VWS V14.01,2013-07-02 07:44:00,
2013-07-02 03:49:00,72.9,72.0,29.97,ENE,76,1.0,5.0,97,0.03,,OVC048,0.05,0.00,VWS V14.01,2013-07-02 07:49:00,
2013-07-02 03:54:00,72.9,72.0,29.98,East,96,1.0,5.0,97,0.03,,OVC048,0.05,0.00,VWS V14.01,2013-07-02 07:54:00,
2013-07-02 03:59:00,73.0,72.4,29.98,East,96,2.0,5.0,98,0.03,,OVC040,0.05,0.00,VWS V14.01,2013-07-02 07:59:00,
2013-07-02 04:04:00,73.1,72.5,29.98,East,96,0.0,2.0,98,0.02,,OVC040,0.05,0.00,VWS V14.01,2013-07-02 08:04:00,
2013-07-02 04:09:00,73.2,72.6,29.98,East,96,0.0,2.0,98,0.02,,OVC040,0.05,0.00,VWS V14.01,2013-07-02 08:09:00,
2013-07-02 04:14:00,73.2,72.6,29.98,East,96,0.0,2.0,98,0.02,,OVC040,0.05,0.00,VWS V14.01,2013-07-02 08:14:00,
2013-07-02 04:19:00,73.2,72.6,29.98,East,96,0.0,2.0,98,0.02,,OVC044,0.05,0.00,VWS V14.01,2013-07-02 08:19:00,
2013-07-02 04:24:00,73.3,72.7,29.98,East,96,1.0,2.0,98,0.02,,OVC044,0.05,0.00,VWS V14.01,2013-07-02 08:24:00,
2013-07-02 04:29:00,73.4,72.8,29.97,East,96,2.0,3.0,98,0.02,,OVC044,0.05,0.00,VWS V14.01,2013-07-02 08:29:00,
2013-07-02 04:34:00,73.5,72.9,29.97,East,96,1.0,3.0,98,0.01,,OVC044,0.05,0.00,VWS V14.01,2013-07-02 08:34:00,
2013-07-02 04:39:00,73.6,73.0,29.97,East,98,1.0,5.0,98,0.01,,BKN029,0.05,0.00,VWS V14.01,2013-07-02 08:39:00,
2013-07-02 04:44:00,73.7,73.1,29.98,SE,135,2.0,5.0,98,0.01,,BKN029,0.05,0.00,VWS V14.01,2013-07-02 08:44:00,
2013-07-02 04:49:00,73.8,73.2,29.98,SE,137,5.0,6.0,98,0.01,,BKN029,0.05,0.00,VWS V14.01,2013-07-02 08:49:00,
2013-07-02 04:54:00,73.9,73.3,29.98,SE,142,5.0,7.0,98,0.01,,BKN029,0.05,0.00,VWS V14.01,2013-07-02 08:54:00,
2013-07-02 04:59:00,74.0,73.4,29.98,SE,137,5.0,9.0,98,0.01,,BKN050,0.05,0.00,VWS V14.01,2013-07-02 08:59:00,
2013-07-02 05:04:00,74.0,73.4,29.98,SE,133,6.0,9.0,98,0.00,,BKN050,0.05,0.00,VWS V14.01,2013-07-02 09:04:00,
2013-07-02 05:09:00,74.0,73.4,29.98,SSE,148,8.0,10.0,98,0.00,,BKN050,0.05,0.00,VWS V14.01,2013-07-02 09:09:00,
2013-07-02 05:14:00,74.1,73.5,29.98,SE,141,8.0,10.0,98,0.00,,BKN050,0.05,0.00,VWS V14.01,2013-07-02 09:14:00,
2013-07-02 05:19:00,74.1,73.5,29.98,SE,132,4.0,10.0,98,0.00,,BKN110,0.05,0.00,VWS V14.01,2013-07-02 09:19:00,
2013-07-02 05:24:00,74.2,73.6,29.98,SE,134,5.0,10.0,98,0.00,,BKN110,0.05,0.00,VWS V14.01,2013-07-02 09:24:00,
2013-07-02 05:29:00,74.2,73.6,29.98,SE,138,5.0,10.0,98,0.00,,BKN110,0.05,0.00,VWS V14.01,2013-07-02 09:29:00,
2013-07-02 05:34:00,74.2,73.6,29.98,ESE,104,7.0,10.0,98,0.00,,BKN110,0.05,0.00,VWS V14.01,2013-07-02 09:34:00,
2013-07-02 05:39:00,74.1,73.5,29.98,SE,144,7.0,10.0,98,0.00,,OVC032,0.05,0.00,VWS V14.01,2013-07-02 09:39:00,
2013-07-02 05:44:00,74.2,73.3,29.98,SE,136,5.0,10.0,97,0.00,,OVC032,0.05,0.00,VWS V14.01,2013-07-02 09:44:00,
2013-07-02 05:49:00,74.2,73.3,29.98,ESE,113,7.0,10.0,97,0.00,,OVC032,0.05,0.00,VWS V14.01,2013-07-02 09:49:00,
2013-07-02 05:54:00,74.1,73.2,29.99,SSE,165,4.0,10.0,97,0.00,,OVC032,0.05,0.00,VWS V14.01,2013-07-02 09:54:00,
2013-07-02 05:59:00,74.1,73.2,29.99,SE,136,5.0,10.0,97,0.00,,BKN022,0.05,0.00,VWS V14.01,2013-07-02 09:59:00,
2013-07-02 06:04:00,74.1,73.2,29.99,SSE,157,2.0,7.0,97,0.00,,BKN022,0.05,0.00,VWS V14.01,2013-07-02 10:04:00,
2013-07-02 06:09:00,74.1,73.2,29.99,South,183,2.0,8.0,97,0.00,,BKN022,0.05,0.00,VWS V14.01,2013-07-02 10:09:00,
2013-07-02 06:14:00,74.1,73.2,29.99,South,182,4.0,8.0,97,0.00,,BKN022,0.05,0.00,VWS V14.01,2013-07-02 10:14:00,
2013-07-02 06:19:00,74.1,73.2,30.00,SSE,161,4.0,8.0,97,0.00,,BKN022,0.05,0.00,VWS V14.01,2013-07-02 10:19:00,
2013-07-02 06:24:00,74.1,73.2,30.00,SSE,162,3.0,9.0,97,0.00,,SCT120,0.05,0.00,VWS V14.01,2013-07-02 10:24:00,
2013-07-02 06:29:00,74.0,73.1,30.00,South,173,4.0,9.0,97,0.00,,SCT120,0.05,0.00,VWS V14.01,2013-07-02 10:29:00,
2013-07-02 06:34:00,74.0,73.1,30.00,SSE,167,3.0,7.0,97,0.00,,SCT120,0.05,0.00,VWS V14.01,2013-07-02 10:34:00,
2013-07-02 06:39:00,74.0,73.1,30.00,South,177,4.0,7.0,97,0.00,,BKN120,0.05,0.00,VWS V14.01,2013-07-02 10:39:00,
2013-07-02 06:44:00,74.0,73.1,30.01,SSE,153,4.0,7.0,97,0.00,,BKN120,0.05,0.00,VWS V14.01,2013-07-02 10:44:00,
2013-07-02 06:49:00,74.0,73.1,30.01,South,171,5.0,7.0,97,0.00,,BKN120,0.05,5.00,VWS V14.01,2013-07-02 10:49:00,
2013-07-02 06:54:00,74.0,73.1,30.01,SSE,147,4.0,7.0,97,0.00,,BKN120,0.05,9.00,VWS V14.01,2013-07-02 10:54:00,
2013-07-02 06:59:00,74.0,73.1,30.01,SSW,202,4.0,7.0,97,0.00,,BKN120,0.05,11.00,VWS V14.01,2013-07-02 10:59:00,
2013-07-02 07:04:00,74.1,73.2,30.01,SE,142,9.0,9.0,97,0.01,,,0.06,11.00,VWS V14.01,2013-07-02 11:04:00,
2013-07-02 07:09:00,74.0,73.1,30.01,SE,143,6.0,9.0,97,0.01,,,0.06,14.00,VWS V14.01,2013-07-02 11:09:00,
2013-07-02 07:14:00,74.1,73.2,30.01,SSE,151,4.0,9.0,97,0.01,,,0.06,21.00,VWS V14.01,2013-07-02 11:14:00,
2013-07-02 07:19:00,74.2,73.3,30.01,SSE,155,5.0,9.0,97,0.01,,,0.06,28.00,VWS V14.01,2013-07-02 11:19:00,
2013-07-02 07:24:00,74.2,73.3,30.02,SSE,164,3.0,10.0,97,0.01,,,0.06,28.00,VWS V14.01,2013-07-02 11:24:00,
2013-07-02 07:29:00,74.2,73.3,30.02,SE,135,7.0,10.0,97,0.01,,,0.06,32.00,VWS V14.01,2013-07-02 11:29:00,
2013-07-02 07:34:00,74.4,73.5,30.02,SE,145,9.0,9.0,97,0.01,,,0.06,37.00,VWS V14.01,2013-07-02 11:34:00,
2013-07-02 07:39:00,74.5,73.6,30.02,SSE,148,7.0,9.0,97,0.01,,,0.06,39.00,VWS V14.01,2013-07-02 11:39:00,
2013-07-02 07:44:00,74.5,73.6,30.02,SE,140,7.0,11.0,97,0.01,,,0.06,42.00,VWS V14.01,2013-07-02 11:44:00,
2013-07-02 07:49:00,74.4,73.5,30.02,ESE,120,5.0,12.0,97,0.01,,,0.06,47.00,VWS V14.01,2013-07-02 11:49:00,
2013-07-02 07:54:00,74.6,73.7,30.02,SE,132,5.0,12.0,97,0.01,,,0.06,49.00,VWS V14.01,2013-07-02 11:54:00,
2013-07-02 07:59:00,74.6,73.7,30.02,ESE,123,5.0,12.0,97,0.01,,,0.06,51.00,VWS V14.01,2013-07-02 11:59:00,
2013-07-02 08:04:00,74.6,73.7,30.03,SE,146,6.0,10.0,97,0.01,,,0.06,53.00,VWS V14.01,2013-07-02 12:04:00,
2013-07-02 08:09:00,74.7,73.8,30.03,SSE,154,5.0,10.0,97,0.01,,,0.06,60.00,VWS V14.01,2013-07-02 12:09:00,
2013-07-02 08:14:00,74.7,73.8,30.03,SSE,159,4.0,10.0,97,0.01,,,0.06,67.00,VWS V14.01,2013-07-02 12:14:00,
2013-07-02 08:19:00,74.8,73.9,30.03,South,169,3.0,10.0,97,0.01,,,0.06,74.00,VWS V14.01,2013-07-02 12:19:00,
2013-07-02 08:24:00,75.0,74.1,30.03,SSE,165,2.0,10.0,97,0.01,,,0.06,77.00,VWS V14.01,2013-07-02 12:24:00,
2013-07-02 08:29:00,75.0,74.1,30.04,SSE,167,5.0,10.0,97,0.01,,,0.06,81.00,VWS V14.01,2013-07-02 12:29:00,
2013-07-02 08:34:00,74.9,74.0,30.04,SE,136,6.0,6.0,97,0.00,,,0.06,74.00,VWS V14.01,2013-07-02 12:34:00,
2013-07-02 08:39:00,75.2,74.3,30.04,South,171,3.0,6.0,97,0.00,,,0.06,76.00,VWS V14.01,2013-07-02 12:39:00,
2013-07-02 08:44:00,75.2,74.3,30.04,SE,146,2.0,6.0,97,0.00,,,0.06,83.00,VWS V14.01,2013-07-02 12:44:00,
2013-07-02 08:49:00,75.3,74.4,30.05,SSE,161,3.0,6.0,97,0.00,,,0.06,74.00,VWS V14.01,2013-07-02 12:49:00,
2013-07-02 08:54:00,75.3,74.4,30.05,SSE,154,5.0,6.0,97,0.00,,,0.06,70.00,VWS V14.01,2013-07-02 12:54:00,
2013-07-02 08:59:00,75.3,74.4,30.05,WSW,244,2.0,6.0,97,0.00,,,0.06,88.00,VWS V14.01,2013-07-02 12:59:00,
2013-07-02 09:04:00,75.5,74.6,30.05,SSE,164,3.0,8.0,97,0.00,,,0.06,105.00,VWS V14.01,2013-07-02 13:04:00,
2013-07-02 09:10:00,75.5,74.6,30.05,South,172,3.0,8.0,97,0.00,,,0.06,123.00,VWS V14.01,2013-07-02 13:10:00,
2013-07-02 09:15:00,75.6,74.4,30.05,South,182,3.0,8.0,96,0.00,,,0.06,134.00,VWS V14.01,2013-07-02 13:15:00,
2013-07-02 09:20:00,75.9,75.0,30.05,SSE,152,5.0,8.0,97,0.00,,,0.06,153.00,VWS V14.01,2013-07-02 13:20:00,
2013-07-02 09:25:00,76.1,74.9,30.05,South,183,2.0,8.0,96,0.00,,,0.06,171.00,VWS V14.01,2013-07-02 13:25:00,
2013-07-02 09:30:00,76.0,74.8,30.06,South,169,4.0,8.0,96,0.00,,,0.06,163.00,VWS V14.01,2013-07-02 13:30:00,
2013-07-02 09:35:00,76.2,75.0,30.06,SSE,155,2.0,8.0,96,0.00,,,0.06,174.00,VWS V14.01,2013-07-02 13:35:00,
2013-07-02 09:40:00,76.6,75.4,30.06,SSW,197,2.0,8.0,96,0.00,,,0.06,181.00,VWS V14.01,2013-07-02 13:40:00,
2013-07-02 09:45:00,76.6,75.4,30.06,SSE,154,2.0,8.0,96,0.00,,,0.06,195.00,VWS V14.01,2013-07-02 13:45:00,
2013-07-02 09:50:00,76.8,75.6,30.06,SSW,202,3.0,8.0,96,0.00,,,0.06,214.00,VWS V14.01,2013-07-02 13:50:00,
2013-07-02 09:55:00,76.9,75.4,30.06,SSE,159,3.0,8.0,95,0.00,,,0.06,239.00,VWS V14.01,2013-07-02 13:55:00,
2013-07-02 10:00:00,77.1,75.6,30.06,South,189,4.0,8.0,95,0.00,,,0.06,246.00,VWS V14.01,2013-07-02 14:00:00,
2013-07-02 10:05:00,77.4,75.9,30.06,SSE,163,6.0,7.0,95,0.00,,,0.06,246.00,VWS V14.01,2013-07-02 14:05:00,
2013-07-02 10:10:00,77.5,75.6,30.05,SE,134,3.0,7.0,94,0.00,,,0.06,230.00,VWS V14.01,2013-07-02 14:10:00,
2013-07-02 10:15:00,77.7,75.8,30.05,South,183,2.0,7.0,94,0.00,,,0.06,223.00,VWS V14.01,2013-07-02 14:15:00,
2013-07-02 10:20:00,77.7,75.5,30.06,SSE,164,3.0,7.0,93,0.00,,,0.06,223.00,VWS V14.01,2013-07-02 14:20:00,
2013-07-02 10:25:00,77.8,75.6,30.05,SE,144,5.0,8.0,93,0.00,,,0.06,234.00,VWS V14.01,2013-07-02 14:25:00,
2013-07-02 10:30:00,78.1,75.9,30.05,South,171,5.0,8.0,93,0.00,,,0.06,276.00,VWS V14.01,2013-07-02 14:30:00,
2013-07-02 10:35:00,78.2,75.7,30.05,ESE,123,4.0,10.0,92,0.00,,,0.06,283.00,VWS V14.01,2013-07-02 14:35:00,
2013-07-02 10:40:00,78.4,75.9,30.05,SSE,153,3.0,10.0,92,0.00,,,0.06,265.00,VWS V14.01,2013-07-02 14:40:00,
2013-07-02 10:45:00,78.8,76.3,30.05,SSE,147,6.0,10.0,92,0.00,,,0.06,264.00,VWS V14.01,2013-07-02 14:45:00,
2013-07-02 10:50:00,79.0,76.5,30.05,SE,132,5.0,10.0,92,0.00,,,0.06,278.00,VWS V14.01,2013-07-02 14:50:00,
2013-07-02 10:55:00,78.9,75.7,30.05,SSE,163,4.0,10.0,90,0.00,,,0.06,308.00,VWS V14.01,2013-07-02 14:55:00,
2013-07-02 11:00:00,79.1,75.9,30.06,South,178,4.0,10.0,90,0.00,,FEW040,0.06,341.00,VWS V14.01,2013-07-02 15:00:00,
2013-07-02 11:05:00,79.4,76.2,30.06,SE,143,4.0,7.0,90,0.00,,FEW040,0.06,438.00,VWS V14.01,2013-07-02 15:05:00,
2013-07-02 11:10:00,79.8,76.3,30.06,South,185,4.0,7.0,89,0.00,,FEW040,0.06,369.00,VWS V14.01,2013-07-02 15:10:00,
2013-07-02 11:15:00,80.1,76.9,30.06,SSE,163,3.0,8.0,90,0.00,,FEW040,0.06,341.00,VWS V14.01,2013-07-02 15:15:00,
2013-07-02 11:20:00,79.9,76.0,30.06,SE,140,8.0,8.0,88,0.00,,FEW040,0.06,383.00,VWS V14.01,2013-07-02 15:20:00,
2013-07-02 11:25:00,80.1,76.9,30.06,SE,143,4.0,8.0,90,0.00,,FEW040,0.06,376.00,VWS V14.01,2013-07-02 15:25:00,
2013-07-02 11:30:00,80.2,76.3,30.06,SE,146,4.0,8.0,88,0.00,,FEW040,0.06,478.00,VWS V14.01,2013-07-02 15:30:00,
2013-07-02 11:35:00,80.5,77.0,30.05,SE,141,5.0,7.0,89,0.00,,FEW040,0.06,432.00,VWS V14.01,2013-07-02 15:35:00,
2013-07-02 11:40:00,80.8,76.9,30.06,SE,138,5.0,7.0,88,0.00,,FEW040,0.06,431.00,VWS V14.01,2013-07-02 15:40:00,
2013-07-02 11:45:00,81.2,77.3,30.05,SE,129,4.0,8.0,88,0.00,,FEW040,0.06,478.00,VWS V14.01,2013-07-02 15:45:00,
2013-07-02 11:50:00,81.6,77.4,30.05,South,169,3.0,11.0,87,0.00,,FEW040,0.06,661.00,VWS V14.01,2013-07-02 15:50:00,
2013-07-02 11:55:00,82.3,78.1,30.05,SE,128,5.0,11.0,87,0.00,,FEW040,0.06,501.00,VWS V14.01,2013-07-02 15:55:00,
2013-07-02 12:00:00,82.0,77.1,30.05,SE,134,5.0,11.0,85,0.00,,SCT020,0.06,461.00,VWS V14.01,2013-07-02 16:00:00,
2013-07-02 12:05:00,82.1,77.5,30.05,SE,144,6.0,11.0,86,0.00,,SCT020,0.06,531.00,VWS V14.01,2013-07-02 16:05:00,
2013-07-02 12:10:00,82.2,77.2,30.05,ESE,103,8.0,11.0,85,0.00,,SCT020,0.06,536.00,VWS V14.01,2013-07-02 16:10:00,
2013-07-02 12:15:00,83.8,78.8,30.05,SE,142,10.0,11.0,85,0.00,,SCT020,0.06,1172.00,VWS V14.01,2013-07-02 16:15:00,
2013-07-02 12:20:00,84.3,78.9,30.05,SE,127,6.0,11.0,84,0.00,,SCT020,0.06,1027.00,VWS V14.01,2013-07-02 16:20:00,
2013-07-02 12:25:00,84.2,78.1,30.05,SE,130,5.0,11.0,82,0.00,,SCT020,0.06,1218.00,VWS V14.01,2013-07-02 16:25:00,
2013-07-02 12:30:00,84.1,78.4,30.05,South,171,5.0,11.0,83,0.00,,SCT020,0.06,360.00,VWS V14.01,2013-07-02 16:30:00,
2013-07-02 12:35:00,84.3,78.6,30.05,SE,138,7.0,10.0,83,0.00,,SCT020,0.06,1118.00,VWS V14.01,2013-07-02 16:35:00,
2013-07-02 12:41:00,85.5,78.6,30.05,SSE,148,10.0,12.0,80,0.00,,SCT020,0.06,1141.00,VWS V14.01,2013-07-02 16:41:00,
2013-07-02 12:45:00,85.8,78.5,30.05,South,187,8.0,12.0,79,0.00,,SCT020,0.06,1013.00,VWS V14.01,2013-07-02 16:45:00,
2013-07-02 12:51:00,85.6,77.6,30.06,South,178,4.0,13.0,77,0.00,,SCT020,0.06,1023.00,VWS V14.01,2013-07-02 16:51:00,
2013-07-02 12:56:00,85.8,77.8,30.05,SE,144,6.0,13.0,77,0.00,,SCT020,0.06,1130.00,VWS V14.01,2013-07-02 16:56:00,
2013-07-02 13:01:00,86.3,78.2,30.05,SE,145,6.0,13.0,77,0.00,,BKN032,0.06,715.00,VWS V14.01,2013-07-02 17:01:00,
2013-07-02 13:06:00,86.3,77.4,30.05,SSE,167,7.0,14.0,75,0.00,,BKN032,0.06,698.00,VWS V14.01,2013-07-02 17:06:00,
2013-07-02 13:11:00,86.4,77.5,30.05,SSW,204,7.0,14.0,75,0.00,,BKN032,0.06,1046.00,VWS V14.01,2013-07-02 17:11:00,
2013-07-02 13:16:00,86.4,77.1,30.05,SSE,166,7.0,14.0,74,0.00,,BKN032,0.06,520.00,VWS V14.01,2013-07-02 17:16:00,
2013-07-02 13:21:00,86.7,77.8,30.05,SE,126,7.0,14.0,75,0.00,,BKN032,0.06,524.00,VWS V14.01,2013-07-02 17:21:00,
2013-07-02 13:26:00,87.4,77.7,30.04,SSE,162,9.0,14.0,73,0.00,,BKN032,0.06,636.00,VWS V14.01,2013-07-02 17:26:00,
2013-07-02 13:31:00,88.0,78.3,30.04,East,100,9.0,14.0,73,0.00,,BKN032,0.06,1259.00,VWS V14.01,2013-07-02 17:31:00,
2013-07-02 13:36:00,87.5,77.4,30.04,SSW,207,4.0,10.0,72,0.00,,BKN032,0.06,381.00,VWS V14.01,2013-07-02 17:36:00,
2013-07-02 13:41:00,86.1,75.6,30.04,SE,141,17.0,23.0,71,0.00,,BKN032,0.06,185.00,VWS V14.01,2013-07-02 17:41:00,
2013-07-02 13:46:00,83.3,73.3,30.04,SE,134,21.0,25.0,72,0.00,,BKN032,0.06,98.00,VWS V14.01,2013-07-02 17:46:00,
2013-07-02 13:51:00,81.1,73.2,30.04,South,179,7.0,25.0,77,0.01,,BKN032,0.07,148.00,VWS V14.01,2013-07-02 17:51:00,
2013-07-02 13:56:00,80.2,74.6,30.04,SW,221,3.0,25.0,83,0.01,,BKN032,0.07,323.00,VWS V14.01,2013-07-02 17:56:00,
2013-07-02 14:01:00,81.9,76.6,30.04,South,174,6.0,25.0,84,0.01,,SCT033,0.07,854.00,VWS V14.01,2013-07-02 18:01:00,
2013-07-02 14:06:00,82.9,74.6,30.03,South,173,8.0,11.0,76,0.01,,SCT033,0.07,285.00,VWS V14.01,2013-07-02 18:06:00,
2013-07-02 14:11:00,81.1,74.0,30.04,SW,229,4.0,20.0,79,0.01,,SCT033,0.07,262.00,VWS V14.01,2013-07-02 18:11:00,
2013-07-02 14:16:00,79.3,73.3,30.03,WNW,291,2.0,20.0,82,0.01,,SCT033,0.07,313.00,VWS V14.01,2013-07-02 18:16:00,
2013-07-02 14:21:00,79.6,73.6,30.03,NW,304,1.0,20.0,82,0.01,,SCT033,0.07,527.00,VWS V14.01,2013-07-02 18:21:00,
2013-07-02 14:26:00,81.2,74.8,30.03,NW,319,1.0,20.0,81,0.01,,SCT033,0.07,545.00,VWS V14.01,2013-07-02 18:26:00,
2013-07-02 14:31:00,81.6,74.5,30.03,NNW,347,0.0,1.0,79,0.01,,SCT033,0.07,364.00,VWS V14.01,2013-07-02 18:31:00,
2013-07-02 14:36:00,81.6,74.1,30.03,NNW,340,3.0,4.0,78,0.01,,SCT033,0.07,397.00,VWS V14.01,2013-07-02 18:36:00,
2013-07-02 14:41:00,82.0,74.8,30.03,NW,312,4.0,5.0,79,0.01,,SCT033,0.07,617.00,VWS V14.01,2013-07-02 18:41:00,
2013-07-02 14:46:00,82.3,75.1,30.03,WNW,284,2.0,5.0,79,0.01,,SCT033,0.07,411.00,VWS V14.01,2013-07-02 18:46:00,
2013-07-02 14:51:00,82.2,73.9,30.03,NW,319,0.0,5.0,76,0.01,,SCT033,0.07,165.00,VWS V14.01,2013-07-02 18:51:00,
2013-07-02 14:56:00,82.6,75.4,30.03,SE,125,8.0,9.0,79,0.01,,SCT033,0.07,230.00,VWS V14.01,2013-07-02 18:56:00,
2013-07-02 15:01:00,84.6,75.4,30.02,SE,139,6.0,11.0,74,0.00,,BKN039,0.07,404.00,VWS V14.01,2013-07-02 19:01:00,
2013-07-02 15:06:00,85.5,76.3,30.02,ESE,116,12.0,13.0,74,0.00,,BKN039,0.07,229.00,VWS V14.01,2013-07-02 19:06:00,
2013-07-02 15:11:00,85.4,74.9,30.02,SSE,157,12.0,18.0,71,0.00,,BKN039,0.07,155.00,VWS V14.01,2013-07-02 19:11:00,
2013-07-02 15:16:00,84.6,76.2,30.02,ESE,119,23.0,25.0,76,0.00,,BKN039,0.07,162.00,VWS V14.01,2013-07-02 19:16:00,
2013-07-02 15:21:00,82.6,76.9,30.02,ESE,104,8.0,25.0,83,0.00,,BKN039,0.07,128.00,VWS V14.01,2013-07-02 19:21:00,
2013-07-02 15:26:00,81.8,76.1,30.02,SE,130,16.0,25.0,83,0.00,,BKN039,0.07,171.00,VWS V14.01,2013-07-02 19:26:00,
2013-07-02 15:31:00,81.5,74.0,30.02,ESE,107,18.0,18.0,78,0.00,,BKN034,0.07,197.00,VWS V14.01,2013-07-02 19:31:00,
2013-07-02 15:36:00,81.6,74.1,30.02,SE,131,7.0,20.0,78,0.00,,BKN034,0.07,209.00,VWS V14.01,2013-07-02 19:36:00,
2013-07-02 15:41:00,81.7,74.2,30.02,SE,127,8.0,20.0,78,0.00,,BKN034,0.07,211.00,VWS V14.01,2013-07-02 19:41:00,
2013-07-02 15:46:00,81.8,74.3,30.03,SE,138,8.0,20.0,78,0.00,,BKN034,0.07,179.00,VWS V14.01,2013-07-02 19:46:00,
2013-07-02 15:51:00,81.4,73.9,30.04,SE,132,15.0,20.0,78,0.00,,BKN034,0.07,79.00,VWS V14.01,2013-07-02 19:51:00,
2013-07-02 15:56:00,80.7,74.0,30.05,SE,140,12.0,20.0,80,0.00,,BKN034,0.07,79.00,VWS V14.01,2013-07-02 19:56:00,
2013-07-02 16:01:00,80.2,74.2,30.04,SSE,147,6.0,7.0,82,0.00,,SCT042,0.07,97.00,VWS V14.01,2013-07-02 20:01:00,
2013-07-02 16:06:00,80.0,74.0,30.04,ESE,109,9.0,13.0,82,0.00,,SCT042,0.07,109.00,VWS V14.01,2013-07-02 20:06:00,
2013-07-02 16:11:00,79.8,74.2,30.04,East,99,10.0,13.0,83,0.00,,SCT042,0.07,121.00,VWS V14.01,2013-07-02 20:11:00,
2013-07-02 16:16:00,79.3,74.1,30.03,SE,130,9.0,14.0,84,0.00,,SCT042,0.07,144.00,VWS V14.01,2013-07-02 20:16:00,
2013-07-02 16:21:00,79.1,74.2,30.03,ESE,113,7.0,14.0,85,0.00,,SCT042,0.07,178.00,VWS V14.01,2013-07-02 20:21:00,
2013-07-02 16:26:00,79.1,74.9,30.03,ESE,109,5.0,14.0,87,0.00,,BKN015,0.07,225.00,VWS V14.01,2013-07-02 20:26:00,
2013-07-02 16:31:00,79.0,74.8,30.03,East,90,5.0,6.0,87,0.00,,BKN015,0.07,246.00,VWS V14.01,2013-07-02 20:31:00,
2013-07-02 16:36:00,78.9,75.1,30.03,ESE,105,5.0,11.0,88,0.00,,BKN015,0.07,232.00,VWS V14.01,2013-07-02 20:36:00,
2013-07-02 16:41:00,78.9,74.7,30.03,East,86,6.0,12.0,87,0.00,,BKN008,0.07,223.00,VWS V14.01,2013-07-02 20:41:00,
2013-07-02 16:46:00,78.9,74.4,30.03,ESE,117,7.0,12.0,86,0.00,,BKN008,0.07,158.00,VWS V14.01,2013-07-02 20:46:00,
2013-07-02 16:51:00,78.9,74.7,30.05,ENE,66,5.0,12.0,87,0.00,,BKN008,0.07,97.00,VWS V14.01,2013-07-02 20:51:00,
2013-07-02 16:56:00,78.9,74.4,30.05,East,101,7.0,12.0,86,0.00,,BKN008,0.07,88.00,VWS V14.01,2013-07-02 20:56:00,
2013-07-02 17:01:00,79.1,74.6,30.05,SE,134,8.0,9.0,86,0.00,,BKN008,0.07,90.00,VWS V14.01,2013-07-02 21:01:00,
2013-07-02 17:06:00,79.2,74.3,30.06,ESE,113,5.0,12.0,85,0.00,,-RA,0.07,70.00,VWS V14.01,2013-07-02 21:06:00,
2013-07-02 17:11:00,79.2,74.3,30.06,ESE,105,7.0,12.0,85,0.00,,-RA,0.07,81.00,VWS V14.01,2013-07-02 21:11:00,
2013-07-02 17:16:00,79.4,74.5,30.06,SE,144,7.0,12.0,85,0.00,,-RA,0.07,77.00,VWS V14.01,2013-07-02 21:16:00,
2013-07-02 17:21:00,79.4,74.2,30.06,SE,138,4.0,12.0,84,0.00,,-RA,0.07,74.00,VWS V14.01,2013-07-02 21:21:00,
2013-07-02 17:26:00,79.4,74.2,30.06,South,171,3.0,12.0,84,0.00,,-RA,0.07,70.00,VWS V14.01,2013-07-02 21:26:00,
2013-07-02 17:31:00,79.6,74.3,30.06,SSE,153,4.0,4.0,84,0.00,,-RA,0.07,63.00,VWS V14.01,2013-07-02 21:31:00,
2013-07-02 17:36:00,79.6,74.3,30.06,SSE,160,6.0,6.0,84,0.00,,-RA,0.07,56.00,VWS V14.01,2013-07-02 21:36:00,
2013-07-02 17:41:00,79.8,74.5,30.06,West,281,3.0,7.0,84,0.00,,-RA,0.07,46.00,VWS V14.01,2013-07-02 21:41:00,
2013-07-02 17:46:00,79.1,74.6,30.06,West,280,4.0,9.0,86,0.00,,-RA,0.07,42.00,VWS V14.01,2013-07-02 21:46:00,
2013-07-02 17:51:00,77.7,73.5,30.05,West,268,3.0,9.0,87,0.00,,-RA,0.07,40.00,VWS V14.01,2013-07-02 21:51:00,
2013-07-02 17:56:00,77.2,73.7,30.05,WSW,238,0.0,9.0,89,0.00,,-RA,0.07,40.00,VWS V14.01,2013-07-02 21:56:00,
2013-07-02 18:01:00,77.0,73.8,30.05,WNW,283,1.0,3.0,90,0.00,,-RA,0.07,40.00,VWS V14.01,2013-07-02 22:01:00,
2013-07-02 18:06:00,76.9,73.8,30.04,NW,318,2.0,3.0,90,0.00,,-RA,0.07,42.00,VWS V14.01,2013-07-02 22:06:00,
2013-07-02 18:11:00,76.8,74.0,30.04,WNW,298,0.0,3.0,91,0.00,,-RA,0.07,46.00,VWS V14.01,2013-07-02 22:11:00,
2013-07-02 18:16:00,76.7,73.9,30.05,WNW,298,1.0,3.0,91,0.00,,-RA,0.07,49.00,VWS V14.01,2013-07-02 22:16:00,
2013-07-02 18:21:00,76.6,74.1,30.05,WNW,302,2.0,3.0,92,0.01,,-RA,0.08,51.00,VWS V14.01,2013-07-02 22:21:00,
2013-07-02 18:26:00,76.4,74.2,30.05,WNW,292,2.0,4.0,93,0.01,,-RA,0.08,51.00,VWS V14.01,2013-07-02 22:26:00,
2013-07-02 18:31:00,76.2,74.0,30.06,West,281,2.0,3.0,93,0.01,,-RA,0.08,54.00,VWS V14.01,2013-07-02 22:31:00,
2013-07-02 18:36:00,76.2,74.0,30.06,West,281,2.0,3.0,93,0.01,,-RA,0.08,56.00,VWS V14.01,2013-07-02 22:36:00,
2013-07-02 18:41:00,76.2,74.3,30.07,WSW,240,3.0,5.0,94,0.01,,-RA,0.08,30.00,VWS V14.01,2013-07-02 22:41:00,
2013-07-02 18:47:00,76.1,74.2,30.07,SSW,209,0.0,5.0,94,0.01,,-RA,0.08,37.00,VWS V14.01,2013-07-02 22:47:00,
2013-07-02 18:52:00,76.0,74.2,30.07,NW,321,2.0,5.0,94,0.01,,-RA,0.08,70.00,VWS V14.01,2013-07-02 22:52:00,
2013-07-02 18:57:00,75.8,73.9,30.06,North,5,3.0,5.0,94,0.01,,-RA,0.08,84.00,VWS V14.01,2013-07-02 22:57:00,
2013-07-02 19:02:00,75.7,73.8,30.07,NW,304,3.0,4.0,94,0.01,,-RA,0.08,81.00,VWS V14.01,2013-07-02 23:02:00,
2013-07-02 19:07:00,75.8,74.3,30.07,NNW,334,3.0,4.0,95,0.01,,-RA,0.08,81.00,VWS V14.01,2013-07-02 23:07:00,
2013-07-02 19:12:00,75.8,74.3,30.07,NW,304,0.0,4.0,95,0.01,,-RA,0.08,56.00,VWS V14.01,2013-07-02 23:12:00,
2013-07-02 19:17:00,75.6,74.1,30.07,North,5,3.0,4.0,95,0.01,,-RA,0.08,58.00,VWS V14.01,2013-07-02 23:17:00,
2013-07-02 19:22:00,75.5,73.7,30.07,North,5,0.0,4.0,94,0.01,,-RA,0.08,63.00,VWS V14.01,2013-07-02 23:22:00,
2013-07-02 19:27:00,75.6,74.1,30.08,NE,35,0.0,4.0,95,0.01,,-RA,0.08,63.00,VWS V14.01,2013-07-02 23:27:00,
2013-07-02 19:29:00,75.7,74.2,30.08,NE,35,0.0,4.0,95,0.01,,-RA,0.08,58.00,VWS V14.01,2013-07-02 23:29:00,
2013-07-02 19:34:00,75.8,74.3,30.08,West,267,0.0,2.0,95,0.00,,-RA,0.08,60.00,VWS V14.01,2013-07-02 23:34:00,
2013-07-02 19:39:00,75.8,74.3,30.08,West,267,1.0,2.0,95,0.00,,-RA,0.08,62.00,VWS V14.01,2013-07-02 23:39:00,
2013-07-02 19:44:00,76.0,74.2,30.09,South,175,2.0,3.0,94,0.00,,-RA,0.08,56.00,VWS V14.01,2013-07-02 23:44:00,
2013-07-02 19:49:00,76.2,74.3,30.09,South,175,0.0,3.0,94,0.00,,-RA,0.08,49.00,VWS V14.01,2013-07-02 23:49:00,
2013-07-02 19:54:00,76.1,74.2,30.09,SSE,167,3.0,3.0,94,0.00,,-RA,0.08,40.00,VWS V14.01,2013-07-02 23:54:00,
2013-07-02 19:59:00,76.2,74.3,30.09,SE,141,0.0,3.0,94,0.00,,-RA,0.08,30.00,VWS V14.01,2013-07-02 23:59:00,
2013-07-02 20:01:00,76.1,74.2,30.09,SE,141,0.0,0.0,94,0.00,,SCT055,0.08,26.00,VWS V14.01,2013-07-03 00:01:00,
2013-07-02 20:06:00,76.0,74.2,30.08,SE,141,0.0,1.0,94,0.00,,SCT055,0.08,19.00,VWS V14.01,2013-07-03 00:06:00,
2013-07-02 20:11:00,75.9,74.1,30.08,South,169,0.0,1.0,94,0.00,,SCT055,0.08,14.00,VWS V14.01,2013-07-03 00:11:00,
2013-07-02 20:16:00,75.8,74.3,30.08,WSW,247,0.0,1.0,95,0.00,,SCT055,0.08,9.00,VWS V14.01,2013-07-03 00:16:00,
2013-07-02 20:21:00,75.9,74.4,30.09,WNW,284,0.0,1.0,95,0.00,,CLR,0.08,5.00,VWS V14.01,2013-07-03 00:21:00,
2013-07-02 20:23:00,76.0,74.5,30.09,West,261,0.0,1.0,95,0.00,,CLR,0.08,5.00,VWS V14.01,2013-07-03 00:23:00,
2013-07-02 20:24:00,76.0,74.5,30.09,West,261,0.0,1.0,95,0.00,,CLR,0.08,0.00,VWS V14.01,2013-07-03 00:24:00,
2013-07-02 20:28:00,75.8,74.3,30.08,West,261,0.0,1.0,95,0.00,,CLR,0.08,0.00,VWS V14.01,2013-07-03 00:28:00,
2013-07-02 20:33:00,75.8,74.3,30.09,West,261,0.0,0.0,95,0.00,,CLR,0.08,0.00,VWS V14.01,2013-07-03 00:33:00,
2013-07-02 20:38:00,76.0,74.5,30.09,NNW,343,1.0,2.0,95,0.00,,CLR,0.08,0.00,VWS V14.01,2013-07-03 00:38:00,
2013-07-02 20:43:00,75.9,74.4,30.09,NNW,347,0.0,2.0,95,0.00,,CLR,0.08,0.00,VWS V14.01,2013-07-03 00:43:00,
2013-07-02 20:48:00,75.8,74.3,30.09,NNW,347,0.0,2.0,95,0.00,,CLR,0.08,0.00,VWS V14.01,2013-07-03 00:48:00,
2013-07-02 20:53:00,75.8,74.3,30.09,East,79,1.0,2.0,95,0.00,,CLR,0.08,0.00,VWS V14.01,2013-07-03 00:53:00,
2013-07-02 20:58:00,75.7,74.2,30.09,SE,132,0.0,2.0,95,0.00,,CLR,0.08,0.00,VWS V14.01,2013-07-03 00:58:00,
2013-07-02 21:00:00,75.8,74.3,30.09,SE,132,1.0,2.0,95,0.00,,CLR,0.08,0.00,VWS V14.01,2013-07-03 01:00:00,
2013-07-02 21:03:00,75.8,74.6,30.09,SE,132,1.0,2.0,96,0.00,,CLR,0.08,0.00,VWS V14.01,2013-07-03 01:03:00,
2013-07-02 21:08:00,75.7,74.5,30.09,SE,132,1.0,2.0,96,0.00,,CLR,0.08,0.00,VWS V14.01,2013-07-03 01:08:00,
2013-07-02 21:09:00,75.7,74.5,30.09,SE,132,0.0,2.0,96,0.00,,CLR,0.08,0.00,VWS V14.01,2013-07-03 01:09:00,
2013-07-02 21:14:00,75.4,73.9,30.09,SSW,205,0.0,2.0,95,0.00,,CLR,0.08,0.00,VWS V14.01,2013-07-03 01:14:00,
2013-07-02 21:19:00,75.3,73.8,30.09,South,170,0.0,2.0,95,0.00,,CLR,0.08,0.00,VWS V14.01,2013-07-03 01:19:00,
2013-07-02 21:24:00,75.2,73.7,30.09,South,170,1.0,3.0,95,0.00,,CLR,0.08,0.00,VWS V14.01,2013-07-03 01:24:00,
2013-07-02 21:26:00,75.2,73.7,30.09,SSE,167,2.0,3.0,95,0.00,,CLR,0.08,0.00,VWS V14.01,2013-07-03 01:26:00,
2013-07-02 21:31:00,75.2,73.7,30.09,SE,144,3.0,3.0,95,0.00,,CLR,0.08,0.00,VWS V14.01,2013-07-03 01:31:00,
2013-07-02 21:36:00,75.1,73.6,30.09,SE,126,2.0,4.0,95,0.00,,CLR,0.08,0.00,VWS V14.01,2013-07-03 01:36:00,
2013-07-02 21:41:00,75.1,73.6,30.09,SE,126,2.0,4.0,95,0.00,,CLR,0.08,0.00,VWS V14.01,2013-07-03 01:41:00,
2013-07-02 21:46:00,75.3,73.8,30.09,SE,126,1.0,4.0,95,0.00,,CLR,0.08,0.00,VWS V14.01,2013-07-03 01:46:00,
2013-07-02 21:49:00,75.4,73.9,30.09,SE,126,1.0,4.0,95,0.00,,CLR,0.08,0.00,VWS V14.01,2013-07-03 01:49:00,
2013-07-02 21:50:00,75.4,73.9,30.09,SE,126,2.0,4.0,95,0.00,,CLR,0.08,0.00,VWS V14.01,2013-07-03 01:50:00,
2013-07-02 21:56:00,75.3,73.8,30.09,ESE,120,1.0,4.0,95,0.00,,CLR,0.08,0.00,VWS V14.01,2013-07-03 01:56:00,
2013-07-02 22:01:00,75.3,73.5,30.09,East,101,1.0,2.0,94,0.00,,CLR,0.08,0.00,VWS V14.01,2013-07-03 02:01:00,
2013-07-02 22:06:00,75.3,73.5,30.09,ENE,73,0.0,5.0,94,0.00,,CLR,0.08,0.00,VWS V14.01,2013-07-03 02:06:00,
2013-07-02 22:12:00,75.3,73.5,30.09,ENE,73,0.0,5.0,94,0.00,,CLR,0.08,0.00,VWS V14.01,2013-07-03 02:12:00,
2013-07-02 22:17:00,75.3,73.5,30.09,ENE,73,0.0,5.0,94,0.00,,CLR,0.08,0.00,VWS V14.01,2013-07-03 02:17:00,
2013-07-02 22:22:00,75.2,73.4,30.09,ENE,73,1.0,5.0,94,0.00,,CLR,0.08,0.00,VWS V14.01,2013-07-03 02:22:00,
2013-07-02 22:27:00,75.0,73.2,30.09,ENE,73,0.0,5.0,94,0.00,,CLR,0.08,0.00,VWS V14.01,2013-07-03 02:27:00,
2013-07-02 22:32:00,74.9,73.1,30.08,ENE,73,1.0,2.0,94,0.00,,CLR,0.08,0.00,VWS V14.01,2013-07-03 02:32:00,
2013-07-02 22:38:00,74.8,73.0,30.08,East,81,1.0,2.0,94,0.00,,CLR,0.08,0.00,VWS V14.01,2013-07-03 02:38:00,
2013-07-02 22:43:00,74.7,72.9,30.09,East,96,2.0,2.0,94,0.00,,CLR,0.08,0.00,VWS V14.01,2013-07-03 02:43:00,
2013-07-02 22:46:00,74.8,73.0,30.08,East,98,0.0,3.0,94,0.00,,CLR,0.08,0.00,VWS V14.01,2013-07-03 02:46:00,
2013-07-02 22:51:00,74.7,72.9,30.08,East,96,2.0,3.0,94,0.00,,CLR,0.08,0.00,VWS V14.01,2013-07-03 02:51:00,
2013-07-02 22:56:00,74.6,72.8,30.09,East,96,0.0,3.0,94,0.00,,CLR,0.08,0.00,VWS V14.01,2013-07-03 02:56:00,
2013-07-02 23:01:00,74.6,72.8,30.09,East,96,1.0,2.0,94,0.00,,SCT008,0.08,0.00,VWS V14.01,2013-07-03 03:01:00,
2013-07-02 23:02:00,74.6,72.8,30.09,East,96,2.0,2.0,94,0.00,,SCT008,0.08,0.00,VWS V14.01,2013-07-03 03:02:00,
2013-07-02 23:07:00,74.6,72.8,30.09,ESE,107,1.0,3.0,94,0.00,,SCT008,0.08,0.00,VWS V14.01,2013-07-03 03:07:00,
2013-07-02 23:12:00,74.7,72.9,30.09,ESE,107,0.0,3.0,94,0.00,,SCT008,0.08,0.00,VWS V14.01,2013-07-03 03:12:00,
2013-07-02 23:17:00,74.8,73.0,30.09,ESE,112,2.0,3.0,94,0.00,,SCT008,0.08,0.00,VWS V14.01,2013-07-03 03:17:00,
2013-07-02 23:21:00,74.9,73.1,30.09,ESE,111,1.0,4.0,94,0.00,,OVC005,0.08,0.00,VWS V14.01,2013-07-03 03:21:00,
2013-07-02 23:26:00,75.0,73.2,30.09,ESE,111,1.0,4.0,94,0.00,,OVC005,0.08,0.00,VWS V14.01,2013-07-03 03:26:00,
2013-07-02 23:32:00,75.0,73.2,30.09,ESE,111,1.0,2.0,94,0.00,,OVC005,0.08,0.00,VWS V14.01,2013-07-03 03:32:00,
2013-07-02 23:35:00,75.0,73.2,30.08,ESE,111,2.0,2.0,94,0.00,,OVC005,0.08,0.00,VWS V14.01,2013-07-03 03:35:00,
2013-07-02 23:39:00,75.0,73.2,30.08,ESE,111,3.0,3.0,94,0.00,,OVC005,0.08,0.00,VWS V14.01,2013-07-03 03:39:00,
2013-07-02 23:45:00,75.2,73.4,30.08,ESE,111,3.0,3.0,94,0.00,,OVC002,0.08,0.00,VWS V14.01,2013-07-03 03:45:00,
2013-07-02 23:49:00,75.3,73.5,30.08,SE,124,3.0,3.0,94,0.00,,OVC002,0.08,0.00,VWS V14.01,2013-07-03 03:49:00,
2013-07-02 23:55:00,75.2,73.4,30.08,ESE,123,2.0,3.0,94,0.00,,OVC002,0.08,0.00,VWS V14.01,2013-07-03 03:55:00,